createdAt,value
2022-07-27T00:02:41.788Z,42.96
2022-07-27T00:08:03.637Z,42.83
2022-07-27T00:13:25.399Z,42.97
2022-07-27T00:18:47.136Z,43.27
2022-07-27T00:24:08.961Z,43.01
2022-07-27T00:29:30.644Z,43.35
2022-07-27T00:34:52.417Z,43.65
2022-07-27T00:40:14.629Z,43.60
2022-07-27T00:45:36.503Z,43.84
2022-07-27T00:50:58.187Z,43.78
2022-07-27T00:56:20.743Z,44.00
2022-07-27T01:01:43.482Z,43.97
2022-07-27T01:07:06.652Z,44.02
2022-07-27T01:12:30.587Z,43.86
2022-07-27T01:17:52.294Z,44.08
2022-07-27T01:23:14.000Z,44.12
2022-07-27T01:28:35.721Z,44.21
2022-07-27T01:33:57.904Z,44.43
2022-07-27T01:39:19.972Z,44.24
2022-07-27T01:44:41.650Z,43.92
2022-07-27T01:50:04.028Z,44.36
2022-07-27T01:55:25.781Z,44.27
2022-07-27T02:00:49.494Z,44.43
2022-07-27T02:06:11.188Z,44.49
2022-07-27T02:11:51.138Z,44.36
2022-07-27T02:17:12.798Z,44.02
2022-07-27T02:22:34.567Z,44.58
2022-07-27T02:27:56.272Z,44.65
2022-07-27T02:33:18.145Z,44.87
2022-07-27T02:38:40.159Z,44.84
2022-07-27T02:44:01.823Z,44.36
2022-07-27T02:49:23.678Z,44.49
2022-07-27T02:54:45.484Z,44.39
2022-07-27T03:00:13.178Z,44.54
2022-07-27T03:05:34.902Z,44.58
2022-07-27T03:10:56.590Z,44.58
2022-07-27T03:16:18.354Z,44.47
2022-07-27T03:21:40.155Z,44.78
2022-07-27T03:27:02.141Z,44.63
2022-07-27T03:32:23.971Z,44.40
2022-07-27T03:37:45.665Z,44.54
2022-07-27T03:43:07.967Z,44.61
2022-07-27T03:48:29.770Z,44.73
2022-07-27T03:53:51.536Z,44.68
2022-07-27T03:59:13.842Z,44.59
2022-07-27T04:04:35.828Z,44.71
2022-07-27T04:09:57.515Z,44.67
2022-07-27T04:15:19.224Z,44.70
2022-07-27T04:20:41.022Z,44.66
2022-07-27T04:26:02.717Z,44.37
2022-07-27T04:31:24.598Z,44.89
2022-07-27T04:36:46.553Z,44.76
2022-07-27T04:42:08.659Z,44.49
2022-07-27T04:47:30.378Z,44.55
2022-07-27T04:52:52.091Z,44.68
2022-07-27T04:58:14.830Z,44.58
2022-07-27T05:03:36.512Z,44.60
2022-07-27T05:08:58.463Z,44.81
2022-07-27T05:14:21.575Z,44.91
2022-07-27T05:19:43.550Z,43.78
2022-07-27T05:25:05.877Z,43.59
2022-07-27T05:30:27.657Z,43.08
2022-07-27T05:35:51.043Z,43.07
2022-07-27T05:41:12.762Z,41.07
2022-07-27T05:46:34.973Z,40.20
2022-07-27T05:51:57.221Z,39.60
2022-07-27T05:57:18.983Z,39.28
2022-07-27T06:02:41.285Z,38.99
2022-07-27T06:08:08.719Z,38.46
2022-07-27T06:13:31.751Z,38.35
2022-07-27T06:18:53.493Z,38.59
2022-07-27T06:24:15.250Z,38.46
2022-07-27T06:29:36.928Z,38.27
2022-07-27T06:35:00.330Z,38.20
2022-07-27T06:40:24.443Z,37.78
2022-07-27T06:45:48.812Z,37.67
2022-07-27T06:51:10.604Z,37.66
2022-07-27T06:56:33.036Z,37.90
2022-07-27T07:01:54.704Z,37.75
2022-07-27T07:07:16.402Z,38.08
2022-07-27T07:12:38.082Z,37.98
2022-07-27T07:17:59.771Z,38.23
2022-07-27T07:23:24.469Z,38.04
2022-07-27T07:28:46.177Z,38.13
2022-07-27T07:34:07.910Z,38.02
2022-07-27T07:39:31.669Z,38.14
2022-07-27T07:44:53.517Z,38.25
2022-07-27T07:50:15.684Z,38.18
2022-07-27T07:55:37.492Z,38.34
2022-07-27T08:00:59.271Z,38.16
2022-07-27T08:06:20.976Z,38.49
2022-07-27T08:11:43.219Z,38.53
2022-07-27T08:17:04.985Z,38.58
2022-07-27T08:22:26.699Z,38.21
2022-07-27T08:27:48.436Z,38.53
2022-07-27T08:33:10.208Z,38.43
2022-07-27T08:38:31.912Z,37.84
2022-07-27T08:43:54.768Z,38.08
2022-07-27T08:49:17.990Z,38.10
2022-07-27T08:54:41.377Z,37.72
2022-07-27T09:00:03.740Z,37.59
2022-07-27T09:05:27.651Z,37.37
2022-07-27T09:11:00.566Z,36.97
2022-07-27T09:17:03.105Z,36.85
2022-07-27T09:22:12.198Z,36.64
2022-07-27T09:27:33.925Z,36.77
2022-07-27T09:33:01.590Z,36.92
2022-07-27T09:38:25.301Z,36.62
2022-07-27T09:44:29.055Z,36.28
2022-07-27T09:49:34.401Z,36.36
2022-07-27T09:55:05.463Z,36.16
2022-07-27T10:00:27.459Z,36.66
2022-07-27T10:05:49.200Z,36.02
2022-07-27T10:11:12.036Z,35.95
2022-07-27T10:16:35.258Z,35.92
2022-07-27T10:21:57.024Z,35.76
2022-07-27T10:27:29.381Z,35.42
2022-07-27T10:32:51.161Z,36.06
2022-07-27T10:38:18.295Z,35.88
2022-07-27T10:43:40.162Z,36.45
2022-07-27T10:49:18.118Z,35.85
2022-07-27T10:54:40.305Z,36.67
2022-07-27T11:00:13.536Z,36.67
2022-07-27T11:11:24.699Z,35.93
2022-07-27T11:16:55.588Z,36.49
2022-07-27T11:22:53.667Z,35.68
2022-07-27T11:28:12.973Z,36.01
2022-07-27T11:33:35.010Z,36.00
2022-07-27T11:38:56.722Z,36.04
2022-07-27T11:44:18.628Z,36.18
2022-07-27T11:49:40.490Z,36.10
2022-07-27T11:55:02.863Z,36.01
2022-07-27T12:00:24.668Z,36.13
2022-07-27T12:05:51.533Z,35.92
2022-07-27T12:11:13.280Z,36.30
2022-07-27T12:16:35.295Z,35.97
2022-07-27T12:21:57.064Z,36.04
2022-07-27T12:27:19.010Z,36.71
2022-07-27T12:32:45.155Z,36.30
2022-07-27T12:38:09.354Z,36.32
2022-07-27T12:43:31.096Z,36.07
2022-07-27T12:48:52.833Z,36.20
2022-07-27T12:54:14.537Z,36.22
2022-07-27T12:59:36.280Z,35.85
2022-07-27T13:04:58.013Z,36.25
2022-07-27T13:10:20.219Z,36.22
2022-07-27T13:15:41.909Z,36.38
2022-07-27T13:21:03.760Z,36.19
2022-07-27T13:26:25.494Z,36.23
2022-07-27T13:31:55.101Z,35.95
2022-07-27T13:37:19.159Z,36.09
2022-07-27T13:42:40.877Z,35.72
2022-07-27T13:48:02.583Z,35.91
2022-07-27T13:53:26.476Z,35.89
2022-07-27T13:58:48.174Z,35.87
2022-07-27T14:04:13.164Z,35.81
2022-07-27T14:10:04.218Z,36.14
2022-07-27T14:15:26.713Z,35.79
2022-07-27T14:20:48.483Z,35.47
2022-07-27T14:26:10.532Z,35.34
2022-07-27T14:31:35.126Z,35.30
2022-07-27T14:36:57.068Z,35.72
2022-07-27T14:42:23.923Z,35.44
2022-07-27T14:47:46.245Z,36.21
2022-07-27T14:53:08.087Z,35.85
2022-07-27T14:58:29.765Z,35.67
2022-07-27T15:03:55.514Z,35.90
2022-07-27T15:09:17.415Z,35.98
2022-07-27T15:14:43.558Z,35.87
2022-07-27T15:20:08.465Z,35.80
2022-07-27T15:25:30.315Z,35.68
2022-07-27T15:30:52.058Z,35.60
2022-07-27T15:36:32.566Z,35.74
2022-07-27T15:41:55.412Z,35.54
2022-07-27T15:47:17.115Z,35.48
2022-07-27T15:52:38.793Z,35.62
2022-07-27T15:58:00.558Z,35.79
2022-07-27T16:03:23.175Z,35.93
2022-07-27T16:08:47.424Z,35.80
2022-07-27T16:14:09.174Z,35.84
2022-07-27T16:19:30.906Z,35.97
2022-07-27T16:24:52.684Z,35.61
2022-07-27T16:30:20.508Z,35.69
2022-07-27T16:35:44.303Z,35.29
2022-07-27T16:41:09.488Z,35.63
2022-07-27T16:46:31.301Z,35.89
2022-07-27T16:51:53.051Z,35.72
2022-07-27T16:57:15.994Z,35.92
2022-07-27T17:02:37.674Z,35.79
2022-07-27T17:07:59.735Z,35.50
2022-07-27T17:13:21.484Z,35.27
2022-07-27T17:18:43.170Z,35.82
2022-07-27T17:24:05.326Z,35.25
2022-07-27T17:29:27.067Z,35.67
2022-07-27T17:34:48.797Z,35.34
2022-07-27T17:40:10.548Z,35.13
2022-07-27T17:45:32.395Z,35.42
2022-07-27T17:50:54.117Z,35.36
2022-07-27T17:56:15.908Z,35.34
2022-07-27T18:01:47.224Z,35.06
2022-07-27T18:07:10.185Z,35.31
2022-07-27T18:12:31.931Z,35.37
2022-07-27T18:17:53.671Z,35.11
2022-07-27T18:23:16.233Z,35.04
2022-07-27T18:28:40.075Z,35.03
2022-07-27T18:34:03.132Z,35.29
2022-07-27T18:39:32.427Z,35.16
2022-07-27T18:44:56.566Z,35.14
2022-07-27T18:50:18.381Z,35.43
2022-07-27T18:55:40.403Z,35.35
2022-07-27T19:01:02.411Z,35.40
2022-07-27T19:06:24.244Z,35.51
2022-07-27T19:11:46.453Z,35.55
2022-07-27T19:17:10.754Z,35.82
2022-07-27T19:22:37.445Z,35.76
2022-07-27T19:28:00.055Z,35.87
2022-07-27T19:33:21.803Z,35.88
2022-07-27T19:38:43.552Z,35.88
2022-07-27T19:44:06.938Z,35.98
2022-07-27T19:49:28.789Z,35.97
2022-07-27T19:54:50.523Z,36.00
2022-07-27T20:00:13.111Z,36.07
2022-07-27T20:05:35.066Z,35.97
2022-07-27T20:10:56.797Z,36.18
2022-07-27T20:16:18.735Z,36.42
2022-07-27T20:21:40.587Z,36.69
2022-07-27T20:27:02.308Z,36.64
2022-07-27T20:32:24.100Z,36.86
2022-07-27T20:37:46.848Z,36.61
2022-07-27T20:43:08.628Z,36.69
2022-07-27T20:48:30.328Z,36.63
2022-07-27T20:53:52.492Z,36.39
2022-07-27T20:59:16.945Z,36.85
2022-07-27T21:04:39.099Z,36.51
2022-07-27T21:10:00.811Z,36.55
2022-07-27T21:15:22.569Z,36.65
2022-07-27T21:20:55.592Z,36.68
2022-07-27T21:26:18.405Z,36.66
2022-07-27T21:31:40.709Z,36.81
2022-07-27T21:37:02.729Z,36.75
2022-07-27T21:42:24.431Z,36.76
2022-07-27T21:47:46.161Z,36.62
2022-07-27T21:53:07.910Z,36.67
2022-07-27T21:58:29.569Z,36.70
2022-07-27T22:03:51.466Z,36.64
2022-07-27T22:09:14.366Z,36.38
2022-07-27T22:14:36.021Z,36.63
2022-07-27T22:19:57.735Z,36.65
2022-07-27T22:25:19.800Z,36.79
2022-07-27T22:30:41.684Z,36.70
2022-07-27T22:36:03.559Z,36.57
2022-07-27T22:41:25.349Z,36.93
2022-07-27T22:46:47.040Z,36.98
2022-07-27T22:52:08.773Z,36.39
2022-07-27T22:57:30.501Z,36.68
2022-07-27T23:02:52.239Z,36.94
2022-07-27T23:08:13.943Z,36.69
2022-07-27T23:13:35.792Z,36.49
2022-07-27T23:18:57.627Z,36.95
2022-07-27T23:24:28.807Z,36.64
2022-07-27T23:29:50.722Z,36.49
2022-07-27T23:35:12.476Z,36.63
2022-07-27T23:40:34.267Z,36.39
2022-07-27T23:45:55.965Z,36.41
2022-07-27T23:51:18.685Z,36.93
2022-07-27T23:56:40.488Z,36.57
